Airport View

Enter AWOS ICAO identifier for current METAR.

ex. KFNL

KPHF 191854Z 23005KT 10SM CLR 29/23 A2977 RMK AO2 SLP080 T02890228

19 Jun 2019 19:04

Phone: 757-874-3682

Other Area AWOS: KFAF - KLFI - KJGG - KNGU

TAF KPHF 191729Z 1918/2018 20005KT P6SM VCSH SCT020 BKN100 FM192000 19006KT P6SM VCTS BKN030CB BKN100 FM200000 19005KT P6SM VCSH BKN100 FM200600 22006KT P6SM BKN200 FM201500 24009KT P6SM SCT250